Time;durP1;ratioP1;P1;durP2;ratioP2;P2;SDS_P1;SDS_P2;PMS_P1;PMS_P2;Temp;Humidity;BMP_temperature;BMP_pressure;BME280_temperature;BME280_humidity;BME280_pressure;Samples;Min_cycle;Max_cycle;Signal;HPM_P1;HPM_P2
2022/03/24 00:01:25;;;;;;;6.17;2.70;;;;;;;4.77;64.52;97342.88;5079516;28;20224;-68
2022/03/24 00:03:51;;;;;;;15.23;2.90;;;;;;;4.67;64.82;97334.06;5078765;28;21389;-67
2022/03/24 00:06:18;;;;;;;7.10;3.67;;;;;;;4.81;64.43;97339.09;5079278;28;20203;-68
2022/03/24 00:08:46;;;;;;;5.73;3.03;;;;;;;4.97;64.07;97325.59;5078903;28;20199;-68
2022/03/24 00:11:12;;;;;;;5.77;3.10;;;;;;;4.77;64.23;97335.06;5078713;28;20214;-66
2022/03/24 00:13:39;;;;;;;6.80;3.17;;;;;;;4.79;64.28;97334.00;5078641;28;20204;-67
2022/03/24 00:16:05;;;;;;;6.40;3.63;;;;;;;4.78;64.08;97321.06;5079981;28;20206;-68
2022/03/24 00:18:32;;;;;;;3.67;2.57;;;;;;;4.70;64.39;97326.00;5079076;28;20208;-66
2022/03/24 00:20:58;;;;;;;7.40;3.30;;;;;;;4.45;65.25;97323.56;5078836;28;20614;-68
2022/03/24 00:23:25;;;;;;;5.23;2.83;;;;;;;4.38;65.39;97325.81;5078953;28;20208;-68
2022/03/24 00:25:53;;;;;;;4.87;3.47;;;;;;;4.56;65.47;97321.00;5078943;28;20224;-67
2022/03/24 00:28:19;;;;;;;4.13;2.83;;;;;;;4.47;64.84;97324.31;5079355;28;20203;-68
2022/03/24 00:30:46;;;;;;;7.87;3.13;;;;;;;4.24;66.15;97322.56;5080142;28;20208;-68
2022/03/24 00:33:12;;;;;;;10.47;4.07;;;;;;;4.40;65.96;97323.09;5078033;28;20227;-67
2022/03/24 00:35:39;;;;;;;5.37;3.80;;;;;;;4.41;64.85;97322.16;5078851;28;20346;-67
2022/03/24 00:38:06;;;;;;;3.27;2.37;;;;;;;4.59;64.32;97312.94;5079616;28;20687;-68
2022/03/24 00:40:34;;;;;;;11.23;3.83;;;;;;;4.55;64.50;97311.50;5079112;28;20291;-68
2022/03/24 00:43:02;;;;;;;4.47;3.13;;;;;;;4.58;65.11;97311.28;5077638;28;20211;-67
2022/03/24 00:45:29;;;;;;;5.60;2.93;;;;;;;4.39;64.50;97316.19;5077621;28;20236;-66
2022/03/24 00:47:55;;;;;;;6.00;1.90;;;;;;;4.18;65.10;97317.78;5079397;28;20204;-68
2022/03/24 00:50:22;;;;;;;3.97;2.80;;;;;;;3.94;65.03;97319.56;5078463;28;20314;-68
2022/03/24 00:52:49;;;;;;;7.03;3.57;;;;;;;3.84;66.81;97317.72;5078222;28;20203;-67
2022/03/24 00:55:18;;;;;;;9.50;2.80;;;;;;;4.08;67.11;97316.78;5078719;28;20704;-68
2022/03/24 00:57:49;;;;;;;3.40;2.53;;;;;;;4.18;66.77;97309.97;5078943;28;20215;-67
2022/03/24 01:00:20;;;;;;;9.33;3.43;;;;;;;4.17;67.00;97307.47;5078527;28;20211;-67
2022/03/24 01:02:48;;;;;;;3.13;1.93;;;;;;;4.18;66.21;97309.13;5078078;28;20308;-67
2022/03/24 01:05:15;;;;;;;12.27;2.60;;;;;;;4.01;64.70;97309.50;5078377;28;20224;-68
2022/03/24 01:07:42;;;;;;;5.97;3.40;;;;;;;4.21;65.00;97301.91;5077841;28;20204;-68
2022/03/24 01:10:11;;;;;;;3.50;2.37;;;;;;;3.68;67.56;97312.78;5078313;28;20204;-68
2022/03/24 01:12:39;;;;;;;8.00;3.77;;;;;;;3.72;67.93;97305.59;5077715;28;20729;-68
2022/03/24 01:15:07;;;;;;;5.57;3.33;;;;;;;3.92;68.00;97302.38;5078388;28;20227;-67
2022/03/24 01:17:35;;;;;;;7.27;3.30;;;;;;;3.99;67.03;97311.41;5078260;28;20277;-68
2022/03/24 01:20:03;;;;;;;8.63;3.33;;;;;;;3.64;67.88;97308.75;5078374;28;20618;-68
2022/03/24 01:22:29;;;;;;;7.83;3.70;;;;;;;3.83;67.59;97300.41;5077523;28;20709;-68
2022/03/24 01:24:56;;;;;;;3.83;2.73;;;;;;;3.88;67.48;97306.13;5078045;28;20732;-68
2022/03/24 01:27:26;;;;;;;3.83;2.77;;;;;;;3.77;66.27;97311.31;5078185;28;20317;-67
2022/03/24 01:29:53;;;;;;;7.20;3.00;;;;;;;3.75;66.09;97308.78;5078247;28;20227;-66
2022/03/24 01:32:20;;;;;;;4.87;2.77;;;;;;;3.84;65.81;97302.91;5077463;28;20872;-68
2022/03/24 01:34:48;;;;;;;7.60;3.73;;;;;;;3.98;66.36;97302.75;5077287;28;20750;-68
2022/03/24 01:37:14;;;;;;;4.00;3.00;;;;;;;3.80;66.24;97301.47;5077440;28;21106;-67
2022/03/24 01:39:41;;;;;;;4.23;2.80;;;;;;;3.86;66.55;97298.44;5077874;28;20225;-66
2022/03/24 01:42:08;;;;;;;7.10;3.07;;;;;;;3.88;66.04;97296.56;5077318;28;20227;-68
2022/03/24 01:44:34;;;;;;;5.93;2.70;;;;;;;3.70;66.94;97297.03;5077290;28;20584;-67
2022/03/24 01:47:05;;;;;;;8.10;1.93;;;;;;;3.92;66.57;97290.19;5077929;28;20215;-67
2022/03/24 01:49:33;;;;;;;4.97;3.23;;;;;;;3.65;67.66;97288.72;5076926;28;20287;-68
2022/03/24 01:52:01;;;;;;;6.57;3.03;;;;;;;3.66;68.07;97287.78;5077794;28;20226;-68
2022/03/24 01:54:30;;;;;;;5.27;3.10;;;;;;;3.74;66.90;97288.06;5077509;28;20721;-68
2022/03/24 01:56:57;;;;;;;6.90;3.90;;;;;;;3.52;67.01;97285.31;5076822;28;20294;-68
2022/03/24 01:59:24;;;;;;;3.83;2.53;;;;;;;3.57;67.46;97277.19;5076662;28;20893;-68
2022/03/24 02:01:51;;;;;;;6.17;3.47;;;;;;;3.39;67.88;97289.75;5077611;28;20227;-66
2022/03/24 02:04:19;;;;;;;5.10;2.87;;;;;;;3.32;68.49;97285.06;5077076;28;20226;-67
2022/03/24 02:06:46;;;;;;;5.10;3.90;;;;;;;3.45;67.65;97281.50;5077130;28;20210;-67
2022/03/24 02:09:15;;;;;;;4.07;2.13;;;;;;;3.68;66.87;97291.13;5077305;28;20203;-66
2022/03/24 02:11:42;;;;;;;4.03;2.67;;;;;;;3.62;66.34;97282.91;5077169;28;20195;-68
2022/03/24 02:14:09;;;;;;;5.10;3.67;;;;;;;3.63;67.45;97278.41;5076481;28;20738;-68
2022/03/24 02:16:38;;;;;;;6.57;3.73;;;;;;;3.68;67.53;97272.88;5077009;28;20204;-68
2022/03/24 02:19:12;;;;;;;7.40;2.73;;;;;;;3.80;66.59;97270.19;5077161;28;20303;-68
2022/03/24 02:21:39;;;;;;;9.03;3.53;;;;;;;3.49;66.95;97279.47;5076900;28;20257;-68
2022/03/24 02:24:08;;;;;;;6.00;3.40;;;;;;;3.41;67.25;97277.44;5076245;28;20782;-66
2022/03/24 02:26:35;;;;;;;6.90;3.07;;;;;;;3.43;66.43;97277.34;5076967;28;20739;-67
2022/03/24 02:29:06;;;;;;;4.80;2.90;;;;;;;3.41;66.33;97276.59;5076675;28;20842;-67
2022/03/24 02:31:33;;;;;;;10.10;4.03;;;;;;;3.44;66.68;97268.59;5076916;28;20203;-67
2022/03/24 02:36:42;;;;;;;7.10;4.00;;;;;;;3.29;66.19;97270.47;5076349;28;20694;-67
2022/03/24 02:39:10;;;;;;;11.30;4.03;;;;;;;3.51;66.76;97268.00;5076686;28;20323;-67
2022/03/24 02:41:45;;;;;;;9.10;3.63;;;;;;;3.55;66.96;97259.03;5076381;28;20238;-66
2022/03/24 02:44:14;;;;;;;4.57;3.00;;;;;;;3.42;67.41;97275.66;5076234;28;20231;-67
2022/03/24 02:46:42;;;;;;;6.80;2.87;;;;;;;3.48;67.15;97267.44;5076223;28;20205;-68
2022/03/24 02:49:09;;;;;;;5.03;3.23;;;;;;;3.30;68.15;97268.72;5076435;28;20204;-67
2022/03/24 02:51:36;;;;;;;12.00;3.77;;;;;;;3.42;68.37;97268.66;5076053;28;20238;-68
2022/03/24 02:54:03;;;;;;;4.57;3.13;;;;;;;3.42;67.53;97263.47;5075774;28;20591;-68
2022/03/24 02:56:31;;;;;;;6.43;3.23;;;;;;;3.58;67.37;97271.00;5077377;28;20297;-68
2022/03/24 02:58:58;;;;;;;3.03;1.77;;;;;;;3.42;66.38;97275.66;5076892;28;20290;-68
2022/03/24 03:01:26;;;;;;;8.27;3.93;;;;;;;3.37;66.28;97268.16;5076148;28;20217;-68
2022/03/24 03:03:52;;;;;;;4.47;2.67;;;;;;;3.38;66.86;97266.41;5073318;28;20255;-67
2022/03/24 03:06:19;;;;;;;4.67;2.20;;;;;;;3.11;68.11;97276.97;5077552;28;20235;-69
2022/03/24 03:08:46;;;;;;;6.47;3.73;;;;;;;2.99;68.47;97279.59;5075498;28;20206;-68
2022/03/24 03:11:12;;;;;;;2.30;2.13;;;;;;;3.11;67.58;97271.78;5076804;28;20208;-68
2022/03/24 03:13:40;;;;;;;5.33;2.40;;;;;;;3.16;68.05;97274.88;5076888;28;20204;-69
2022/03/24 03:16:06;;;;;;;8.30;3.27;;;;;;;3.05;67.04;97279.19;5076352;28;20218;-69
2022/03/24 03:18:33;;;;;;;5.20;3.10;;;;;;;2.88;68.23;97281.28;5076929;28;20214;-66
2022/03/24 03:21:00;;;;;;;9.13;3.03;;;;;;;3.01;67.73;97291.56;5077119;28;20314;-67
2022/03/24 03:23:26;;;;;;;7.63;4.33;;;;;;;2.88;67.64;97289.94;5075622;28;20255;-69
2022/03/24 03:25:56;;;;;;;3.80;2.80;;;;;;;2.82;67.93;97292.13;5076505;28;20219;-68
2022/03/24 03:28:22;;;;;;;6.07;3.50;;;;;;;2.80;68.40;97294.84;5077020;28;20204;-67
2022/03/24 03:30:50;;;;;;;5.40;2.83;;;;;;;2.92;69.25;97296.59;5076466;28;20722;-68
2022/03/24 03:33:17;;;;;;;6.23;3.23;;;;;;;2.80;69.20;97300.03;5075523;28;20691;-68
2022/03/24 03:35:44;;;;;;;10.63;3.10;;;;;;;2.75;68.41;97296.91;5076573;28;20223;-67
2022/03/24 03:38:11;;;;;;;9.40;4.17;;;;;;;2.80;68.96;97296.59;5076162;28;20207;-67
2022/03/24 03:40:38;;;;;;;4.77;3.20;;;;;;;2.88;68.12;97291.69;5076258;28;20226;-67
2022/03/24 03:43:04;;;;;;;7.27;3.43;;;;;;;2.93;68.80;97287.00;5075611;28;20766;-67
2022/03/24 03:45:31;;;;;;;5.07;3.33;;;;;;;2.76;69.40;97295.13;5076300;28;20231;-69
2022/03/24 03:47:59;;;;;;;4.90;3.20;;;;;;;2.97;70.04;97293.69;5076301;28;20207;-69
2022/03/24 03:50:26;;;;;;;6.13;2.83;;;;;;;2.79;69.92;97293.16;5076412;28;20219;-68
2022/03/24 03:52:52;;;;;;;8.47;3.63;;;;;;;2.89;70.18;97289.00;5076008;28;20230;-67
2022/03/24 03:55:19;;;;;;;10.50;4.13;;;;;;;2.98;68.95;97297.94;5075864;28;20242;-67
2022/03/24 03:57:45;;;;;;;10.07;3.87;;;;;;;2.87;68.28;97296.06;5076167;28;20303;-66
2022/03/24 04:03:13;;;;;;;3.43;2.53;;;;;;;3.07;69.77;97291.16;5032454;28;20231;-68
2022/03/24 04:05:39;;;;;;;2.40;2.00;;;;;;;3.02;69.31;97298.44;5033265;28;20240;-68
2022/03/24 04:08:07;;;;;;;4.37;3.43;;;;;;;2.90;68.88;97295.84;5052001;28;20211;-67
2022/03/24 04:10:34;;;;;;;1.97;1.83;;;;;;;2.83;69.56;97296.41;5076029;28;20207;-68
2022/03/24 04:13:00;;;;;;;3.40;2.37;;;;;;;2.89;69.22;97290.75;5075651;28;20199;-68
2022/03/24 04:15:27;;;;;;;9.90;3.73;;;;;;;2.80;69.94;97286.19;5076092;28;20226;-68
2022/03/24 04:17:53;;;;;;;7.17;2.50;;;;;;;2.62;69.92;97285.69;5076955;28;20200;-66
2022/03/24 04:20:22;;;;;;;41.27;4.33;;;;;;;2.86;69.55;97288.38;5077523;28;20203;-68
2022/03/24 04:22:49;;;;;;;5.00;2.67;;;;;;;2.57;68.94;97290.34;5078530;28;20703;-68
2022/03/24 04:25:15;;;;;;;7.40;4.13;;;;;;;2.55;68.61;97284.41;5079805;28;20727;-69
2022/03/24 04:27:42;;;;;;;4.00;3.17;;;;;;;2.62;70.38;97290.03;5079941;28;20273;-67
2022/03/24 04:30:11;;;;;;;5.13;4.00;;;;;;;2.71;69.39;97290.25;5079563;28;20207;-68
2022/03/24 04:32:37;;;;;;;11.80;3.20;;;;;;;2.64;67.62;97294.19;5078629;28;20639;-68
2022/03/24 04:35:04;;;;;;;5.23;2.80;;;;;;;2.64;67.83;97286.41;5079379;28;20919;-67
2022/03/24 04:37:32;;;;;;;8.97;3.87;;;;;;;2.75;67.60;97289.13;5078995;28;20242;-67
2022/03/24 04:39:58;;;;;;;11.20;2.90;;;;;;;2.65;69.05;97288.06;5079631;28;20195;-66
2022/03/24 04:42:25;;;;;;;5.30;2.47;;;;;;;2.44;68.41;97291.28;5078462;28;20231;-68
2022/03/24 04:44:51;;;;;;;5.23;3.87;;;;;;;2.47;67.40;97294.50;5079205;28;20215;-67
2022/03/24 04:47:18;;;;;;;4.90;2.43;;;;;;;2.50;67.68;97296.06;5079588;28;20207;-68
2022/03/24 04:49:44;;;;;;;5.57;3.57;;;;;;;2.36;68.82;97293.56;5079361;28;20579;-66
2022/03/24 04:52:11;;;;;;;4.03;2.83;;;;;;;2.32;69.12;97296.44;5078191;28;20289;-67
2022/03/24 04:54:39;;;;;;;5.10;3.17;;;;;;;2.51;69.59;97295.97;5078593;28;20229;-67
2022/03/24 04:57:06;;;;;;;8.40;3.13;;;;;;;2.46;68.94;97303.25;5079122;28;20668;-66
2022/03/24 04:59:33;;;;;;;7.40;2.77;;;;;;;2.35;68.42;97301.47;5078839;28;20332;-68
2022/03/24 05:01:59;;;;;;;4.37;2.70;;;;;;;2.41;68.84;97297.50;5078667;28;20200;-68
2022/03/24 05:04:25;;;;;;;7.90;5.30;;;;;;;2.47;68.58;97299.72;5077644;28;20230;-69
2022/03/24 05:06:52;;;;;;;2.77;2.57;;;;;;;2.43;68.77;97298.25;5078793;28;20201;-67
2022/03/24 05:09:19;;;;;;;4.17;2.43;;;;;;;2.46;68.57;97298.03;5078675;28;20196;-67
2022/03/24 05:11:46;;;;;;;3.20;2.43;;;;;;;2.57;68.45;97300.75;5079046;28;20230;-67
2022/03/24 05:14:13;;;;;;;7.10;3.93;;;;;;;2.44;69.18;97297.31;5077861;28;20867;-68
2022/03/24 05:16:40;;;;;;;6.53;4.17;;;;;;;2.42;68.77;97304.38;5078506;28;20268;-67
2022/03/24 05:19:06;;;;;;;7.33;3.73;;;;;;;2.23;68.86;97307.47;5078546;28;20205;-67
2022/03/24 05:21:33;;;;;;;5.20;2.57;;;;;;;2.20;69.75;97305.91;5078960;28;20551;-68
2022/03/24 05:24:00;;;;;;;11.70;3.37;;;;;;;2.38;69.24;97304.72;5077526;28;21489;-67
2022/03/24 05:26:27;;;;;;;4.43;2.20;;;;;;;2.40;68.68;97299.41;5076888;28;20196;-66
2022/03/24 05:28:54;;;;;;;4.47;2.23;;;;;;;2.52;69.61;97308.03;5077666;28;20672;-68
2022/03/24 05:31:22;;;;;;;6.23;2.47;;;;;;;2.40;70.74;97300.22;5078311;28;20205;-68
2022/03/24 05:33:48;;;;;;;11.20;2.87;;;;;;;2.50;71.60;97306.47;5077113;28;20192;-67
2022/03/24 05:36:15;;;;;;;5.77;2.87;;;;;;;2.58;70.48;97305.03;5077896;28;20707;-68
2022/03/24 05:38:42;;;;;;;8.13;2.37;;;;;;;2.57;70.08;97310.31;5078617;28;20200;-66
2022/03/24 05:41:13;;;;;;;4.60;3.33;;;;;;;2.66;71.64;97307.94;5078184;28;20210;-66
2022/03/24 05:43:40;;;;;;;5.10;3.43;;;;;;;2.64;71.91;97304.59;5077150;28;20291;-68
2022/03/24 05:46:07;;;;;;;10.53;3.80;;;;;;;2.77;72.29;97315.03;5078301;28;20221;-67
2022/03/24 05:48:34;;;;;;;4.77;2.57;;;;;;;2.25;71.50;97322.03;5077501;28;20200;-67
2022/03/24 05:51:01;;;;;;;6.37;2.87;;;;;;;2.15;73.11;97317.53;5077698;28;20206;-66
2022/03/24 05:53:28;;;;;;;3.87;3.20;;;;;;;2.31;74.85;97323.41;5077256;28;20207;-67
2022/03/24 05:55:54;;;;;;;6.37;2.63;;;;;;;2.53;75.09;97311.47;5077874;28;20591;-66
2022/03/24 05:58:21;;;;;;;19.57;3.30;;;;;;;2.68;75.17;97313.88;5077433;28;20441;-66
2022/03/24 06:00:47;;;;;;;7.27;3.97;;;;;;;2.72;74.20;97312.72;5077413;28;20204;-68
2022/03/24 06:03:16;;;;;;;4.77;2.60;;;;;;;2.86;73.66;97312.63;5076581;28;20224;-67
2022/03/24 06:05:44;;;;;;;4.77;3.33;;;;;;;3.04;74.09;97312.22;5077647;28;21155;-66
2022/03/24 06:08:11;;;;;;;7.47;3.13;;;;;;;3.11;74.01;97320.44;5077914;28;20573;-69
2022/03/24 06:10:39;;;;;;;12.87;4.27;;;;;;;3.34;73.22;97317.06;5077446;28;20200;-67
2022/03/24 06:13:06;;;;;;;5.77;3.20;;;;;;;3.38;73.89;97315.91;5076688;28;20210;-66
2022/03/24 06:15:33;;;;;;;13.13;6.27;;;;;;;3.35;73.49;97308.31;5077270;28;20250;-68
2022/03/24 06:17:59;;;;;;;9.13;3.70;;;;;;;3.49;73.72;97321.16;5077786;28;20199;-68
2022/03/24 06:20:27;;;;;;;10.30;3.97;;;;;;;3.62;73.74;97316.78;5077063;28;20242;-67
2022/03/24 06:22:54;;;;;;;9.00;3.87;;;;;;;3.59;74.40;97324.81;5076551;28;20230;-68
2022/03/24 06:25:21;;;;;;;8.27;3.40;;;;;;;3.59;74.27;97319.59;5076728;28;20222;-69
2022/03/24 06:27:49;;;;;;;17.80;4.03;;;;;;;3.55;74.73;97325.97;5077035;28;20635;-68
2022/03/24 06:30:17;;;;;;;8.23;3.43;;;;;;;3.73;74.98;97315.91;5077248;28;20204;-67
2022/03/24 06:32:44;;;;;;;8.63;2.60;;;;;;;3.86;74.40;97316.69;5076122;28;20215;-67
2022/03/24 06:35:11;;;;;;;7.53;5.03;;;;;;;4.08;73.76;97324.63;5077093;28;20302;-67
2022/03/24 06:37:40;;;;;;;14.97;5.33;;;;;;;4.39;72.81;97314.44;5077090;28;20211;-67
2022/03/24 06:40:09;;;;;;;17.13;4.83;;;;;;;4.43;71.90;97312.41;5076921;28;20260;-68
2022/03/24 06:42:35;;;;;;;14.03;6.83;;;;;;;4.57;71.98;97315.69;5075068;28;20212;-67
2022/03/24 06:45:02;;;;;;;16.37;6.53;;;;;;;4.66;71.76;97316.75;5076917;28;20246;-68
2022/03/24 06:47:28;;;;;;;10.70;5.77;;;;;;;4.84;71.69;97309.19;5076793;28;20207;-68
2022/03/24 06:49:55;;;;;;;11.60;6.23;;;;;;;4.99;71.20;97310.66;5077034;28;20207;-68
2022/03/24 06:52:21;;;;;;;25.87;5.60;;;;;;;5.20;70.20;97311.59;5075602;28;20582;-67
2022/03/24 06:54:49;;;;;;;8.30;5.53;;;;;;;5.37;68.75;97315.50;5076194;28;20226;-67
2022/03/24 06:57:15;;;;;;;27.47;7.60;;;;;;;5.52;67.53;97317.75;5077405;28;20239;-68
2022/03/24 06:59:42;;;;;;;9.37;5.17;;;;;;;5.51;67.46;97310.88;5077031;28;20203;-68
2022/03/24 07:02:09;;;;;;;11.43;6.00;;;;;;;5.62;67.62;97305.63;5075752;28;20203;-66
2022/03/24 07:04:36;;;;;;;15.90;5.07;;;;;;;5.84;67.00;97310.84;5076098;28;20304;-68
2022/03/24 07:07:03;;;;;;;11.97;4.80;;;;;;;6.14;65.52;97307.44;5076795;28;20817;-67
2022/03/24 07:09:30;;;;;;;18.30;5.77;;;;;;;6.14;66.33;97314.47;5075455;28;20683;-67
2022/03/24 07:11:58;;;;;;;19.43;6.27;;;;;;;6.44;65.13;97310.19;5076891;28;20210;-68
2022/03/24 07:14:24;;;;;;;11.47;5.27;;;;;;;6.63;64.90;97309.47;5076128;28;20218;-68
2022/03/24 07:16:51;;;;;;;21.60;7.43;;;;;;;6.43;64.95;97313.75;5076513;28;20203;-68
2022/03/24 07:19:18;;;;;;;13.23;6.13;;;;;;;6.70;64.33;97311.47;5076248;28;20203;-67
2022/03/24 07:21:45;;;;;;;17.00;7.20;;;;;;;6.70;63.86;97314.91;5076816;28;20716;-66
2022/03/24 07:24:11;;;;;;;15.80;6.10;;;;;;;6.89;63.85;97319.47;5075596;28;20223;-68
2022/03/24 07:26:38;;;;;;;16.73;5.70;;;;;;;6.98;62.24;97313.44;5076594;28;20203;-68
2022/03/24 07:29:06;;;;;;;18.33;6.50;;;;;;;7.41;61.69;97313.09;5077000;28;20196;-68
2022/03/24 07:31:33;;;;;;;14.03;5.60;;;;;;;7.27;62.03;97313.44;5076431;28;20570;-67
2022/03/24 07:34:01;;;;;;;11.23;4.50;;;;;;;7.46;61.55;97312.72;5075250;28;20889;-67
2022/03/24 07:36:28;;;;;;;10.90;4.93;;;;;;;7.52;61.53;97313.03;5075882;28;20192;-68
2022/03/24 07:38:57;;;;;;;12.77;6.50;;;;;;;7.54;61.80;97313.69;5076610;28;20663;-67
2022/03/24 07:41:23;;;;;;;11.60;5.33;;;;;;;7.76;61.01;97318.75;5075966;28;20196;-66
2022/03/24 07:43:50;;;;;;;18.73;5.57;;;;;;;7.91;60.93;97315.59;5075803;28;20239;-66
2022/03/24 07:46:18;;;;;;;18.10;6.53;;;;;;;7.87;60.55;97318.63;5076522;28;20215;-68
2022/03/24 07:48:46;;;;;;;13.10;5.83;;;;;;;8.02;61.25;97318.13;5075991;28;20211;-68
2022/03/24 07:51:14;;;;;;;15.20;6.20;;;;;;;8.26;60.82;97321.25;5075920;28;20211;-68
2022/03/24 07:53:52;;;;;;;12.37;5.20;;;;;;;8.65;59.86;97312.38;5076850;28;20199;-67
2022/03/24 07:56:21;;;;;;;13.50;5.07;;;;;;;8.55;59.57;97317.66;5080496;28;20195;-68
2022/03/24 07:58:48;;;;;;;12.17;5.10;;;;;;;8.64;59.39;97313.34;5080489;28;20196;-68
2022/03/24 08:01:15;;;;;;;12.77;4.93;;;;;;;9.08;58.29;97307.50;5080289;28;20200;-68
2022/03/24 08:03:43;;;;;;;15.53;6.13;;;;;;;9.23;57.46;97302.44;5078589;28;20227;-67
2022/03/24 08:06:10;;;;;;;13.53;6.07;;;;;;;9.10;57.01;97306.38;5078348;28;20268;-66
2022/03/24 08:08:36;;;;;;;15.07;6.23;;;;;;;9.14;57.65;97307.75;5078967;28;20557;-68
2022/03/24 08:11:03;;;;;;;12.20;5.57;;;;;;;9.42;56.89;97309.44;5079023;28;20261;-68
2022/03/24 08:13:29;;;;;;;20.00;6.27;;;;;;;9.58;55.30;97307.03;5078259;28;20582;-66
2022/03/24 08:15:56;;;;;;;16.20;5.27;;;;;;;9.82;55.77;97302.91;5078899;28;20223;-68
2022/03/24 08:18:23;;;;;;;21.50;6.53;;;;;;;9.95;54.65;97298.97;5079687;28;20323;-67
2022/03/24 08:20:51;;;;;;;17.20;6.57;;;;;;;10.29;54.28;97302.63;5079273;28;20683;-67
2022/03/24 08:23:18;;;;;;;16.47;6.77;;;;;;;10.31;52.96;97303.31;5078262;28;20266;-68
2022/03/24 08:25:45;;;;;;;25.83;4.33;;;;;;;10.46;51.69;97299.16;5078948;28;20224;-67
2022/03/24 08:28:13;;;;;;;22.07;6.43;;;;;;;10.53;51.64;97302.88;5078853;28;20286;-67
2022/03/24 08:30:40;;;;;;;16.77;5.70;;;;;;;10.69;50.72;97316.19;5078810;28;20200;-67
2022/03/24 08:33:09;;;;;;;19.20;6.93;;;;;;;10.69;50.60;97310.91;5078151;28;20200;-67
2022/03/24 08:35:36;;;;;;;16.03;6.57;;;;;;;10.91;50.33;97316.56;5078796;28;20216;-68
2022/03/24 08:38:03;;;;;;;15.37;5.87;;;;;;;11.29;50.32;97322.28;5078649;28;20384;-68
2022/03/24 08:40:30;;;;;;;18.70;7.20;;;;;;;11.22;47.90;97315.94;5078800;28;20834;-67
2022/03/24 08:42:57;;;;;;;18.03;6.90;;;;;;;11.34;50.32;97313.88;5077368;28;20680;-68
2022/03/24 08:45:24;;;;;;;12.60;5.30;;;;;;;11.36;48.74;97314.56;5077955;28;20489;-67
2022/03/24 08:47:51;;;;;;;21.20;6.40;;;;;;;11.62;48.66;97303.84;5078897;28;20212;-67
2022/03/24 08:50:18;;;;;;;20.23;6.77;;;;;;;11.67;48.38;97311.28;5079033;28;20211;-68
2022/03/24 08:52:45;;;;;;;13.90;6.00;;;;;;;11.74;49.71;97307.03;5077796;28;20580;-68
2022/03/24 08:55:14;;;;;;;18.07;6.93;;;;;;;11.71;50.05;97309.97;5078429;28;20290;-68
2022/03/24 08:57:41;;;;;;;14.67;5.93;;;;;;;11.66;50.31;97309.66;5078612;28;20204;-67
2022/03/24 09:00:12;;;;;;;18.00;7.30;;;;;;;12.16;49.48;97302.59;5078158;28;20200;-68
2022/03/24 09:02:39;;;;;;;14.37;6.10;;;;;;;12.21;48.56;97304.56;5077728;28;20200;-68
2022/03/24 09:05:06;;;;;;;17.67;6.20;;;;;;;12.40;47.67;97304.28;5077559;28;20426;-68
2022/03/24 09:07:33;;;;;;;17.33;6.17;;;;;;;12.56;48.11;97301.66;5077843;28;20640;-67
2022/03/24 09:09:59;;;;;;;17.27;7.20;;;;;;;12.75;45.83;97308.47;5078369;28;20200;-68
2022/03/24 09:12:27;;;;;;;16.43;6.57;;;;;;;12.99;45.43;97312.78;5077784;28;20253;-68
2022/03/24 09:14:53;;;;;;;18.05;6.07;;;;;;;12.95;46.33;97310.66;5078064;28;20223;-67
2022/03/24 09:17:20;;;;;;;15.97;6.07;;;;;;;12.98;45.22;97312.97;5078053;28;20207;-68
2022/03/24 09:19:46;;;;;;;20.83;7.33;;;;;;;13.14;45.55;97308.50;5078467;28;20256;-68
2022/03/24 09:22:13;;;;;;;19.80;7.53;;;;;;;13.34;45.78;97307.16;5077621;28;20627;-67
2022/03/24 09:24:39;;;;;;;37.97;7.43;;;;;;;13.27;44.10;97307.97;5077470;28;20914;-68
2022/03/24 09:27:06;;;;;;;14.97;6.83;;;;;;;13.42;45.15;97307.13;5077075;28;20542;-67
2022/03/24 09:29:35;;;;;;;15.85;6.05;;;;;;;13.95;42.35;97304.66;5077978;28;20283;-68
2022/03/24 09:32:01;;;;;;;19.52;5.93;;;;;;;13.58;38.35;97307.94;5078048;28;20203;-68
2022/03/24 09:34:28;;;;;;;17.48;6.95;;;;;;;13.94;38.52;97300.34;5076946;28;20269;-68
2022/03/24 09:36:54;;;;;;;14.77;6.05;;;;;;;13.79;38.29;97302.88;5077303;28;20196;-68
2022/03/24 09:39:21;;;;;;;16.73;7.70;;;;;;;14.08;37.63;97303.94;5077682;28;20200;-68
2022/03/24 09:41:48;;;;;;;15.70;6.03;;;;;;;14.45;37.50;97300.63;5077084;28;20211;-69
2022/03/24 09:44:15;;;;;;;14.45;6.55;;;;;;;14.48;37.80;97287.00;5076751;28;20260;-67
2022/03/24 09:46:43;;;;;;;17.33;6.50;;;;;;;14.94;38.40;97292.97;5077688;28;20196;-68
2022/03/24 09:49:11;;;;;;;18.48;7.22;;;;;;;14.77;37.50;97295.91;5077382;28;20729;-68
2022/03/24 09:51:40;;;;;;;20.50;6.68;;;;;;;14.81;38.16;97291.91;5077219;28;20214;-68
2022/03/24 09:54:07;;;;;;;15.35;6.53;;;;;;;15.27;37.52;97292.53;5076384;28;20215;-68
2022/03/24 09:56:34;;;;;;;18.83;7.18;;;;;;;15.15;38.46;97292.28;5077024;28;20577;-69
2022/03/24 09:59:01;;;;;;;19.42;7.55;;;;;;;15.43;38.11;97287.06;5077358;28;20204;-69
2022/03/24 10:01:28;;;;;;;22.60;6.72;;;;;;;15.65;38.92;97293.31;5077381;28;20843;-69
2022/03/24 10:04:07;;;;;;;20.27;7.82;;;;;;;16.23;37.49;97284.28;5076482;28;20227;-68
2022/03/24 10:06:36;;;;;;;24.95;8.02;;;;;;;16.11;37.77;97277.78;5076561;28;20683;-69
2022/03/24 10:09:03;;;;;;;20.98;7.93;;;;;;;15.99;38.49;97273.94;5077525;28;20196;-68
2022/03/24 10:11:29;;;;;;;18.70;7.10;;;;;;;16.13;38.37;97278.44;5077175;28;20192;-67
2022/03/24 10:13:58;;;;;;;24.90;7.63;;;;;;;16.37;38.12;97272.81;5076413;28;20218;-69
2022/03/24 10:16:43;;;;;;;19.75;6.93;;;;;;;16.74;37.81;97272.63;5077156;28;20223;-69
2022/03/24 10:19:13;;;;;;;21.08;7.05;;;;;;;16.95;38.36;97261.94;5076745;28;20210;-68
2022/03/24 10:21:42;;;;;;;15.05;6.28;;;;;;;17.04;37.06;97264.28;5073265;28;20203;-69
2022/03/24 10:24:11;;;;;;;21.77;7.97;;;;;;;16.81;36.85;97270.81;5075924;28;20228;-68
2022/03/24 10:26:46;;;;;;;22.90;6.88;;;;;;;17.06;35.81;97264.09;5076429;28;20572;-69
2022/03/24 10:29:15;;;;;;;20.05;7.40;;;;;;;16.86;36.52;97258.56;5076750;28;20203;-69
2022/03/24 10:31:43;;;;;;;29.88;7.65;;;;;;;17.20;35.60;97262.16;5077123;28;20215;-69
2022/03/24 10:34:12;;;;;;;15.70;7.05;;;;;;;17.39;35.06;97258.03;5075808;28;20227;-68
2022/03/24 10:36:42;;;;;;;21.42;8.35;;;;;;;17.55;34.07;97261.22;5076277;28;20204;-67
2022/03/24 10:39:09;;;;;;;14.20;6.63;;;;;;;17.45;35.09;97260.75;5076377;28;20236;-68
2022/03/24 10:41:38;;;;;;;22.00;7.50;;;;;;;17.85;34.83;97257.31;5076781;28;20787;-68
2022/03/24 10:44:09;;;;;;;18.25;6.63;;;;;;;18.16;34.07;97257.66;5075305;28;20879;-68
2022/03/24 10:46:39;;;;;;;20.52;7.38;;;;;;;18.39;33.87;97257.16;5076312;28;20208;-68
2022/03/24 10:49:18;;;;;;;20.02;7.40;;;;;;;18.78;34.04;97256.44;5076358;28;20299;-68
2022/03/24 10:51:45;;;;;;;19.10;7.45;;;;;;;18.46;33.06;97255.31;5076046;28;20196;-69
2022/03/24 10:54:24;;;;;;;21.50;7.97;;;;;;;18.54;32.51;97249.00;5074953;28;20222;-67
2022/03/24 10:56:56;;;;;;;16.23;6.65;;;;;;;18.75;34.33;97247.00;5076246;28;20600;-68
2022/03/24 10:59:26;;;;;;;15.98;6.32;;;;;;;19.06;32.36;97248.06;5075800;28;20204;-69
2022/03/24 11:01:53;;;;;;;14.98;5.95;;;;;;;19.30;31.76;97244.78;5075796;28;20200;-69
2022/03/24 11:04:21;;;;;;;18.50;6.45;;;;;;;19.40;31.84;97234.50;5075437;28;20277;-69
2022/03/24 11:06:49;;;;;;;15.65;6.45;;;;;;;19.45;33.25;97231.19;5076225;28;20220;-69
2022/03/24 11:09:22;;;;;;;17.85;6.15;;;;;;;19.57;31.82;97242.91;5075782;28;20199;-68
2022/03/24 11:11:48;;;;;;;15.35;6.22;;;;;;;19.52;31.94;97240.03;5076541;28;20658;-69
2022/03/24 11:14:16;;;;;;;15.27;6.38;;;;;;;19.55;28.70;97243.09;5075056;28;20590;-68
2022/03/24 11:16:43;;;;;;;21.75;6.50;;;;;;;19.49;28.94;97240.44;5075833;28;20195;-68
2022/03/24 11:19:14;;;;;;;14.68;6.63;;;;;;;19.76;30.20;97232.16;5076197;28;20196;-69
2022/03/24 11:21:58;;;;;;;16.95;5.50;;;;;;;20.04;29.10;97236.22;5073683;28;20200;-68
2022/03/24 11:24:25;;;;;;;14.88;6.15;;;;;;;20.02;28.95;97238.31;5075122;28;20227;-67
2022/03/24 11:26:52;;;;;;;18.13;6.72;;;;;;;20.40;28.49;97225.78;5075780;28;20702;-69
2022/03/24 11:29:20;;;;;;;16.80;6.80;;;;;;;20.25;29.55;97223.38;5078354;28;20210;-69
2022/03/24 11:31:47;;;;;;;17.55;6.40;;;;;;;20.07;30.09;97225.09;5079770;28;20207;-68
2022/03/24 11:34:14;;;;;;;18.73;7.45;;;;;;;20.56;29.21;97222.59;5078810;28;20715;-69
2022/03/24 11:36:42;;;;;;;12.40;5.80;;;;;;;20.22;28.90;97228.34;5080435;28;20199;-69
2022/03/24 11:39:12;;;;;;;16.67;6.75;;;;;;;20.23;28.22;97219.28;5079756;28;20678;-69
2022/03/24 11:41:43;;;;;;;19.13;7.00;;;;;;;20.36;28.21;97213.84;5079524;28;20207;-69